createdAt,value
2022-10-04T00:00:30.359Z,1.60
2022-10-04T00:03:03.753Z,1.80
2022-10-04T00:05:32.934Z,1.70
2022-10-04T00:08:04.291Z,1.80
2022-10-04T00:10:34.073Z,1.58
2022-10-04T00:13:05.112Z,1.55
2022-10-04T00:15:37.329Z,1.30
2022-10-04T00:18:08.280Z,1.80
2022-10-04T00:20:55.532Z,1.40
2022-10-04T00:23:28.742Z,1.20
2022-10-04T00:25:58.841Z,1.40
2022-10-04T00:28:32.540Z,1.40
2022-10-04T00:31:13.270Z,1.52
2022-10-04T00:33:42.382Z,1.40
2022-10-04T00:36:29.497Z,1.33
2022-10-04T00:39:04.604Z,1.70
2022-10-04T00:41:39.133Z,1.17
2022-10-04T00:44:11.348Z,1.30
2022-10-04T00:46:42.685Z,1.02
2022-10-04T00:49:12.127Z,1.50
2022-10-04T00:51:41.703Z,1.65
2022-10-04T00:54:13.520Z,1.30
2022-10-04T00:56:44.548Z,1.33
2022-10-04T00:59:26.934Z,1.20
2022-10-04T01:01:59.211Z,1.40
2022-10-04T01:04:34.108Z,1.40
2022-10-04T01:07:04.057Z,1.08
2022-10-04T01:09:34.541Z,1.25
2022-10-04T01:12:05.875Z,1.13
2022-10-04T01:14:41.043Z,1.10
2022-10-04T01:17:11.463Z,1.20
2022-10-04T01:19:41.441Z,1.30
2022-10-04T01:22:13.675Z,1.23
2022-10-04T01:24:44.892Z,1.10
2022-10-04T01:27:34.065Z,1.08
2022-10-04T01:30:03.433Z,1.30
2022-10-04T01:32:32.695Z,1.17
2022-10-04T01:35:01.166Z,1.17
2022-10-04T01:37:29.703Z,1.20
2022-10-04T01:39:59.525Z,1.00
2022-10-04T01:42:31.594Z,1.20
2022-10-04T01:45:01.256Z,0.98
2022-10-04T01:47:32.606Z,1.23
2022-10-04T01:50:02.914Z,1.13
2022-10-04T01:52:34.987Z,1.15
2022-10-04T01:55:07.101Z,1.00
2022-10-04T01:57:37.442Z,1.20
2022-10-04T02:00:07.636Z,1.27
2022-10-04T02:02:38.912Z,1.10
2022-10-04T02:05:08.898Z,1.17
2022-10-04T02:07:39.068Z,1.25
2022-10-04T02:10:11.473Z,1.17
2022-10-04T02:12:40.157Z,1.23
2022-10-04T02:15:10.150Z,1.30
2022-10-04T02:17:40.937Z,1.25
2022-10-04T02:20:12.737Z,0.98
2022-10-04T02:22:43.237Z,1.10
2022-10-04T02:25:14.607Z,1.30
2022-10-04T02:27:43.089Z,1.20
2022-10-04T02:30:12.482Z,1.00
2022-10-04T02:32:59.827Z,1.20
2022-10-04T02:35:30.077Z,1.10
2022-10-04T02:38:05.416Z,1.30
2022-10-04T02:40:40.933Z,1.30
2022-10-04T02:43:12.493Z,1.40
2022-10-04T02:45:44.586Z,1.27
2022-10-04T02:48:17.877Z,0.93
2022-10-04T02:50:49.608Z,1.05
2022-10-04T02:53:21.249Z,1.13
2022-10-04T02:55:51.324Z,1.00
2022-10-04T02:58:21.546Z,0.82
2022-10-04T03:00:51.576Z,1.35
2022-10-04T03:03:23.627Z,1.20
2022-10-04T03:05:57.062Z,1.30
2022-10-04T03:08:26.235Z,1.20
2022-10-04T03:10:56.157Z,1.10
2022-10-04T03:13:24.618Z,1.08
2022-10-04T03:15:53.195Z,0.95
2022-10-04T03:18:22.027Z,1.00
2022-10-04T03:20:50.584Z,1.05
2022-10-04T03:23:20.280Z,1.35
2022-10-04T03:25:52.341Z,1.05
2022-10-04T03:28:22.864Z,1.05
2022-10-04T03:30:52.013Z,0.90
2022-10-04T03:33:22.275Z,0.90
2022-10-04T03:35:54.185Z,1.10
2022-10-04T03:38:23.297Z,1.08
2022-10-04T03:40:53.405Z,1.13
2022-10-04T03:43:25.528Z,1.35
2022-10-04T03:45:54.454Z,1.30
2022-10-04T03:48:27.853Z,1.10
2022-10-04T03:50:56.732Z,1.23
2022-10-04T03:53:30.322Z,0.98
2022-10-04T03:56:04.094Z,1.05
2022-10-04T03:58:35.329Z,1.10
2022-10-04T04:01:07.656Z,1.23
2022-10-04T04:03:42.793Z,1.10
2022-10-04T04:06:16.352Z,1.30
2022-10-04T04:08:45.985Z,0.90
2022-10-04T04:11:18.912Z,1.05
2022-10-04T04:13:51.980Z,1.20
2022-10-04T04:16:21.930Z,1.00
2022-10-04T04:18:50.851Z,1.02
2022-10-04T04:21:20.224Z,1.10
2022-10-04T04:23:52.751Z,0.98
2022-10-04T04:26:25.495Z,1.10
2022-10-04T04:28:56.469Z,1.15
2022-10-04T04:31:26.226Z,0.98
2022-10-04T04:33:59.367Z,1.02
2022-10-04T04:36:28.484Z,1.00
2022-10-04T04:39:25.363Z,1.05
2022-10-04T04:41:53.778Z,1.00
2022-10-04T04:44:23.644Z,0.90
2022-10-04T04:46:52.516Z,1.50
2022-10-04T04:49:21.352Z,1.08
2022-10-04T04:51:51.466Z,1.00
2022-10-04T04:54:20.871Z,1.50
2022-10-04T04:56:50.683Z,1.52
2022-10-04T04:59:19.930Z,1.08
2022-10-04T05:01:50.459Z,1.20
2022-10-04T05:04:21.274Z,1.23
2022-10-04T05:06:50.215Z,1.55
2022-10-04T05:09:25.650Z,1.23
2022-10-04T05:11:55.067Z,0.93
2022-10-04T05:14:23.564Z,1.10
2022-10-04T05:16:54.482Z,1.10
2022-10-04T05:19:24.977Z,1.23
2022-10-04T05:21:54.777Z,0.88
2022-10-04T05:24:25.185Z,0.85
2022-10-04T05:26:54.324Z,1.38
2022-10-04T05:29:25.273Z,1.23
2022-10-04T05:31:59.503Z,1.15
2022-10-04T05:34:29.269Z,1.10
2022-10-04T05:37:12.086Z,0.93
2022-10-04T05:39:43.151Z,1.10
2022-10-04T05:42:15.368Z,1.40
2022-10-04T05:44:48.524Z,1.05
2022-10-04T05:47:22.874Z,0.90
2022-10-04T05:49:52.416Z,1.10
2022-10-04T05:52:27.886Z,1.38
2022-10-04T05:55:16.128Z,1.10
2022-10-04T05:57:46.189Z,1.33
2022-10-04T06:00:16.320Z,1.00
2022-10-04T06:02:54.978Z,1.08
2022-10-04T06:05:29.160Z,0.80
2022-10-04T06:08:00.260Z,1.10
2022-10-04T06:10:40.501Z,1.40
2022-10-04T06:13:15.589Z,0.95
2022-10-04T06:15:55.828Z,0.93
2022-10-04T06:18:35.254Z,1.60
2022-10-04T06:21:27.677Z,0.98
2022-10-04T06:23:58.769Z,1.42
2022-10-04T06:26:30.025Z,1.10
2022-10-04T06:29:00.008Z,1.02
2022-10-04T06:31:38.695Z,1.05
2022-10-04T06:34:15.212Z,1.38
2022-10-04T06:37:00.332Z,1.00
2022-10-04T06:39:35.597Z,1.17
2022-10-04T06:42:13.583Z,1.00
2022-10-04T06:44:54.989Z,1.23
2022-10-04T06:47:30.250Z,1.27
2022-10-04T06:50:02.722Z,1.08
2022-10-04T06:52:40.634Z,0.80
2022-10-04T06:55:20.918Z,1.20
2022-10-04T06:58:00.370Z,1.38
2022-10-04T07:00:29.203Z,1.23
2022-10-04T07:03:00.828Z,1.02
2022-10-04T07:05:34.593Z,0.85
2022-10-04T07:08:07.634Z,1.10
2022-10-04T07:10:48.336Z,1.50
2022-10-04T07:13:31.406Z,1.23
2022-10-04T07:16:02.416Z,1.05
2022-10-04T07:18:34.277Z,0.90
2022-10-04T07:21:07.842Z,0.85
2022-10-04T07:23:39.137Z,1.25
2022-10-04T07:26:09.717Z,0.98
2022-10-04T07:28:59.093Z,1.38
2022-10-04T07:31:29.125Z,2.30
2022-10-04T07:33:59.676Z,1.00
2022-10-04T07:36:31.489Z,1.17
2022-10-04T07:39:02.149Z,1.20
2022-10-04T07:41:33.902Z,0.85
2022-10-04T07:44:04.376Z,1.02
2022-10-04T07:46:46.675Z,0.75
2022-10-04T07:49:16.068Z,1.13
2022-10-04T07:51:52.500Z,1.10
2022-10-04T07:54:24.229Z,1.23
2022-10-04T07:56:55.662Z,1.33
2022-10-04T07:59:32.998Z,1.33
2022-10-04T08:02:07.293Z,1.10
2022-10-04T08:04:44.118Z,1.25
2022-10-04T08:07:17.192Z,1.05
2022-10-04T08:09:50.069Z,1.25
2022-10-04T08:12:22.264Z,0.88
2022-10-04T08:14:58.436Z,1.20
2022-10-04T08:17:35.506Z,1.20
2022-10-04T08:20:09.305Z,1.27
2022-10-04T08:22:49.974Z,1.20
2022-10-04T08:25:21.160Z,1.35
2022-10-04T08:28:13.391Z,1.10
2022-10-04T08:30:49.170Z,1.25
2022-10-04T08:33:23.169Z,1.20
2022-10-04T08:35:56.095Z,1.20
2022-10-04T08:38:42.393Z,1.05
2022-10-04T08:41:28.677Z,1.17
2022-10-04T08:44:11.676Z,1.20
2022-10-04T08:46:59.573Z,1.00
2022-10-04T08:49:43.152Z,1.02
2022-10-04T08:52:37.101Z,1.30
2022-10-04T08:55:23.421Z,1.10
2022-10-04T08:58:02.308Z,1.30
2022-10-04T09:00:37.276Z,1.13
2022-10-04T09:03:22.936Z,1.15
2022-10-04T09:05:58.489Z,0.80
2022-10-04T09:08:41.777Z,1.00
2022-10-04T09:11:30.015Z,1.08
2022-10-04T09:14:11.912Z,0.98
2022-10-04T09:16:46.144Z,1.08
2022-10-04T09:19:22.562Z,1.48
2022-10-04T09:22:01.331Z,1.17
2022-10-04T09:24:48.298Z,1.40
2022-10-04T09:27:53.586Z,0.90
2022-10-04T09:30:19.805Z,0.93
2022-10-04T09:32:59.585Z,1.35
2022-10-04T09:35:45.677Z,0.80
2022-10-04T09:38:24.747Z,0.95
2022-10-04T09:41:02.057Z,1.20
2022-10-04T09:43:38.562Z,0.95
2022-10-04T09:46:20.567Z,1.02
2022-10-04T09:48:54.684Z,1.10
2022-10-04T09:51:29.006Z,0.70
2022-10-04T09:54:15.726Z,1.10
2022-10-04T09:56:59.268Z,1.92
2022-10-04T09:59:36.763Z,1.27
2022-10-04T10:02:38.695Z,1.08
2022-10-04T10:05:22.140Z,0.77
2022-10-04T10:07:54.666Z,1.20
2022-10-04T10:10:45.941Z,0.88
2022-10-04T10:13:43.112Z,0.70
2022-10-04T10:16:25.540Z,0.80
2022-10-04T10:19:01.612Z,0.80
2022-10-04T10:21:43.792Z,0.80
2022-10-04T10:24:26.985Z,1.20
2022-10-04T10:27:03.626Z,1.08
2022-10-04T10:30:03.456Z,1.00
2022-10-04T10:32:46.687Z,1.02
2022-10-04T10:35:21.682Z,1.30
2022-10-04T10:38:02.293Z,0.75
2022-10-04T10:40:45.384Z,1.02
2022-10-04T10:43:46.479Z,0.88
2022-10-04T10:46:23.580Z,0.88
2022-10-04T10:49:12.928Z,0.80
2022-10-04T10:51:57.076Z,1.02
2022-10-04T10:54:40.275Z,0.68
2022-10-04T10:57:10.970Z,0.80
2022-10-04T10:59:57.225Z,0.93
2022-10-04T11:02:49.936Z,1.15
2022-10-04T11:05:46.645Z,0.90
2022-10-04T11:08:30.003Z,0.70
2022-10-04T11:11:20.556Z,0.82
2022-10-04T11:14:13.523Z,0.90
2022-10-04T11:17:04.031Z,0.93
2022-10-04T11:20:04.751Z,0.85
2022-10-04T11:22:51.480Z,0.63
2022-10-04T11:25:30.518Z,1.15
2022-10-04T11:28:05.764Z,0.80
2022-10-04T11:30:41.574Z,0.80
2022-10-04T11:33:30.181Z,1.00
2022-10-04T11:36:14.376Z,1.10
2022-10-04T11:38:52.972Z,1.00
2022-10-04T11:41:26.095Z,1.23
2022-10-04T11:44:07.210Z,1.10
2022-10-04T11:46:39.124Z,1.08
2022-10-04T11:49:14.857Z,0.90
2022-10-04T11:52:02.832Z,0.90
2022-10-04T11:54:50.018Z,1.10
2022-10-04T11:57:28.541Z,1.00
2022-10-04T12:00:03.343Z,1.30
2022-10-04T12:02:46.684Z,1.27
2022-10-04T12:05:29.225Z,1.30
2022-10-04T12:08:07.392Z,0.80
2022-10-04T12:10:37.313Z,0.88
2022-10-04T12:13:18.025Z,1.00
2022-10-04T12:15:54.480Z,1.00
2022-10-04T12:18:32.981Z,0.80
2022-10-04T12:21:17.473Z,0.90
2022-10-04T12:23:54.854Z,0.88
2022-10-04T12:26:44.226Z,0.90
2022-10-04T12:29:27.820Z,0.90
2022-10-04T12:31:59.810Z,0.90
2022-10-04T12:34:31.915Z,0.70
2022-10-04T12:37:15.248Z,0.98
2022-10-04T12:39:55.583Z,0.63
2022-10-04T12:42:32.521Z,0.73
2022-10-04T12:45:07.705Z,1.05
2022-10-04T12:47:52.585Z,0.70
2022-10-04T12:50:27.757Z,0.70
2022-10-04T12:53:02.400Z,0.77
2022-10-04T12:55:45.713Z,0.80
2022-10-04T12:58:18.617Z,0.70
2022-10-04T13:00:48.331Z,0.82
2022-10-04T13:03:27.040Z,1.27
2022-10-04T13:06:02.887Z,0.70
2022-10-04T13:08:39.188Z,0.80
2022-10-04T13:11:15.062Z,0.70
2022-10-04T13:13:57.496Z,0.85
2022-10-04T13:19:25.448Z,0.73
2022-10-04T13:22:01.808Z,0.73
2022-10-04T13:24:53.053Z,0.85
2022-10-04T13:27:26.148Z,0.80
2022-10-04T13:29:58.133Z,0.85
2022-10-04T13:32:28.125Z,1.08
2022-10-04T13:35:03.885Z,1.02
2022-10-04T13:37:36.678Z,0.93
2022-10-04T13:40:23.097Z,1.08
2022-10-04T13:43:07.151Z,0.93
2022-10-04T13:45:45.385Z,0.85
2022-10-04T13:48:23.884Z,1.15
2022-10-04T13:51:04.754Z,0.88
2022-10-04T13:53:54.463Z,1.35
2022-10-04T13:56:40.114Z,1.02
2022-10-04T13:59:12.465Z,1.13
2022-10-04T14:02:10.325Z,1.15
2022-10-04T14:04:50.381Z,1.02
2022-10-04T14:07:31.190Z,1.00
2022-10-04T14:10:05.076Z,0.90
2022-10-04T14:12:44.941Z,0.75
2022-10-04T14:15:29.010Z,0.80
2022-10-04T14:18:21.290Z,1.00
2022-10-04T14:21:25.113Z,0.90
2022-10-04T14:24:25.727Z,0.85
2022-10-04T14:27:05.853Z,1.10
2022-10-04T14:29:51.896Z,1.30
2022-10-04T14:32:35.151Z,1.20
2022-10-04T14:35:06.626Z,0.90
2022-10-04T14:37:57.295Z,0.80
2022-10-04T14:40:40.241Z,1.02
2022-10-04T14:43:27.112Z,0.75
2022-10-04T14:46:04.785Z,0.88
2022-10-04T14:48:43.913Z,1.10
2022-10-04T14:51:16.989Z,0.90
2022-10-04T14:53:51.702Z,0.95
2022-10-04T14:56:38.048Z,1.10
2022-10-04T14:59:21.722Z,0.90
2022-10-04T15:02:05.536Z,1.00
2022-10-04T15:04:37.400Z,1.17
2022-10-04T15:07:18.805Z,0.98
2022-10-04T15:09:56.966Z,0.90
2022-10-04T15:12:58.668Z,1.05
2022-10-04T15:15:27.819Z,1.30
2022-10-04T15:17:59.957Z,1.73
2022-10-04T15:20:31.277Z,1.10
2022-10-04T15:23:12.224Z,1.27
2022-10-04T15:25:42.891Z,1.27
2022-10-04T15:28:19.574Z,1.60
2022-10-04T15:30:55.099Z,1.40
2022-10-04T15:33:31.643Z,1.20
2022-10-04T15:36:17.367Z,2.55
2022-10-04T15:38:49.452Z,1.50
2022-10-04T15:41:20.307Z,1.80
2022-10-04T15:44:11.982Z,1.80
2022-10-04T15:46:44.941Z,2.08
2022-10-04T15:49:30.210Z,1.60
2022-10-04T15:52:12.722Z,1.70
2022-10-04T15:54:59.504Z,1.60
2022-10-04T15:57:31.497Z,1.80
2022-10-04T16:00:05.293Z,1.85
2022-10-04T16:02:42.542Z,1.80
2022-10-04T16:05:16.979Z,2.42
2022-10-04T16:08:01.540Z,1.92
2022-10-04T16:10:32.268Z,1.85
2022-10-04T16:13:15.547Z,1.50
2022-10-04T16:15:48.257Z,1.50
2022-10-04T16:18:37.885Z,1.63
2022-10-04T16:21:12.792Z,1.50
2022-10-04T16:23:43.852Z,1.70
2022-10-04T16:26:14.056Z,1.33
2022-10-04T16:28:58.175Z,1.50
2022-10-04T16:31:40.163Z,1.73
2022-10-04T16:34:17.743Z,1.40
2022-10-04T16:36:49.179Z,1.63
2022-10-04T16:39:51.179Z,1.80
2022-10-04T16:42:21.549Z,1.40
2022-10-04T16:44:52.588Z,1.63
2022-10-04T16:47:23.590Z,1.30
2022-10-04T16:49:55.264Z,1.50
2022-10-04T16:52:36.397Z,1.73
2022-10-04T16:55:20.792Z,1.95
2022-10-04T16:58:04.097Z,1.40
2022-10-04T17:00:38.181Z,1.70
2022-10-04T17:03:15.319Z,2.03
2022-10-04T17:05:52.091Z,1.52
2022-10-04T17:08:32.966Z,2.08
2022-10-04T17:11:25.314Z,1.42
2022-10-04T17:13:56.906Z,1.45
2022-10-04T17:16:30.230Z,2.05
2022-10-04T17:19:12.924Z,1.50
2022-10-04T17:21:46.241Z,1.90
2022-10-04T17:24:24.903Z,1.50
2022-10-04T17:27:05.677Z,1.80
2022-10-04T17:29:45.254Z,2.22
2022-10-04T17:32:17.685Z,2.53
2022-10-04T17:34:54.325Z,2.20
2022-10-04T17:37:28.684Z,1.75
2022-10-04T17:40:05.176Z,2.53
2022-10-04T17:42:41.965Z,2.40
2022-10-04T17:45:25.311Z,2.38
2022-10-04T17:48:16.966Z,2.50
2022-10-04T17:51:08.837Z,1.50
2022-10-04T17:53:56.384Z,2.08
2022-10-04T17:56:29.740Z,1.77
2022-10-04T17:58:59.107Z,1.63
2022-10-04T18:01:29.414Z,1.60
2022-10-04T18:04:01.059Z,1.60
2022-10-04T18:06:31.450Z,1.55
2022-10-04T18:09:03.967Z,1.50
2022-10-04T18:11:34.831Z,1.65
2022-10-04T18:14:06.429Z,1.60
2022-10-04T18:16:46.037Z,1.70
2022-10-04T18:19:32.507Z,1.85
2022-10-04T18:22:06.004Z,1.50
2022-10-04T18:24:35.934Z,1.80
2022-10-04T18:27:14.573Z,1.85
2022-10-04T18:29:44.174Z,1.45
2022-10-04T18:32:32.287Z,1.23
2022-10-04T18:35:01.869Z,1.63
2022-10-04T18:37:34.442Z,1.20
2022-10-04T18:40:15.224Z,1.55
2022-10-04T18:42:44.872Z,1.50
2022-10-04T18:45:21.207Z,1.30
2022-10-04T18:47:51.037Z,1.17
2022-10-04T18:50:25.260Z,1.30
2022-10-04T18:53:01.208Z,1.40
2022-10-04T18:55:36.446Z,1.48
2022-10-04T18:58:25.793Z,2.00
2022-10-04T19:01:17.429Z,1.50
2022-10-04T19:03:50.994Z,1.50
2022-10-04T19:06:24.955Z,1.45
2022-10-04T19:08:55.749Z,1.30
2022-10-04T19:11:29.921Z,1.65
2022-10-04T19:14:06.085Z,1.92
2022-10-04T19:16:41.800Z,1.58
2022-10-04T19:19:20.219Z,1.65
2022-10-04T19:21:51.605Z,1.52
2022-10-04T19:24:27.470Z,1.42
2022-10-04T19:27:01.198Z,1.45
2022-10-04T19:29:37.170Z,1.80
2022-10-04T19:32:07.420Z,1.20
2022-10-04T19:34:41.945Z,1.58
2022-10-04T19:37:12.726Z,1.70
2022-10-04T19:39:47.458Z,2.03
2022-10-04T19:42:19.400Z,1.80
2022-10-04T19:44:54.783Z,1.30
2022-10-04T19:47:29.332Z,1.52
2022-10-04T19:50:00.378Z,1.35
2022-10-04T19:52:35.319Z,1.80
2022-10-04T19:55:11.211Z,1.80
2022-10-04T19:57:41.418Z,1.38
2022-10-04T20:00:15.331Z,1.50
2022-10-04T20:02:48.423Z,1.60
2022-10-04T20:05:20.762Z,1.38
2022-10-04T20:07:53.738Z,1.70
2022-10-04T20:10:30.711Z,1.40
2022-10-04T20:13:26.157Z,1.38
2022-10-04T20:15:59.878Z,1.45
2022-10-04T20:18:47.342Z,1.30
2022-10-04T20:21:26.658Z,1.52
2022-10-04T20:23:59.701Z,1.75
2022-10-04T20:26:56.481Z,1.80
2022-10-04T20:29:53.082Z,1.85
2022-10-04T20:32:37.021Z,1.92
2022-10-04T20:35:07.639Z,1.63
2022-10-04T20:37:58.910Z,1.77
2022-10-04T20:40:46.722Z,1.40
2022-10-04T20:43:28.314Z,1.73
2022-10-04T20:45:59.208Z,1.80
2022-10-04T20:48:32.068Z,1.33
2022-10-04T20:51:09.828Z,1.23
2022-10-04T20:53:47.256Z,1.70
2022-10-04T20:56:24.104Z,1.60
2022-10-04T20:58:54.275Z,1.67
2022-10-04T21:01:42.393Z,1.70
2022-10-04T21:04:14.721Z,1.80
2022-10-04T21:06:53.572Z,1.65
2022-10-04T21:09:22.053Z,2.00
2022-10-04T21:11:52.493Z,1.60
2022-10-04T21:14:24.254Z,2.20
2022-10-04T21:16:56.443Z,1.80
2022-10-04T21:19:51.435Z,1.80
2022-10-04T21:22:40.266Z,1.60
2022-10-04T21:25:41.904Z,1.55
2022-10-04T21:28:33.150Z,1.80
2022-10-04T21:31:02.597Z,1.80
2022-10-04T21:33:33.093Z,1.90
2022-10-04T21:36:01.547Z,1.73
2022-10-04T21:38:31.558Z,1.90
2022-10-04T21:40:59.964Z,1.80
2022-10-04T21:43:28.473Z,2.08
2022-10-04T21:45:56.887Z,2.20
2022-10-04T21:48:25.770Z,2.03
2022-10-04T21:50:54.700Z,2.47
2022-10-04T21:53:23.707Z,1.98
2022-10-04T21:55:53.493Z,1.50
2022-10-04T21:58:21.880Z,1.55
2022-10-04T22:00:50.436Z,1.80
2022-10-04T22:03:18.925Z,2.05
2022-10-04T22:05:47.332Z,1.88
2022-10-04T22:08:15.740Z,1.60
2022-10-04T22:10:45.074Z,1.95
2022-10-04T22:13:14.863Z,1.73
2022-10-04T22:15:43.285Z,1.58
2022-10-04T22:18:11.696Z,2.03
2022-10-04T22:20:40.084Z,2.28
2022-10-04T22:23:12.603Z,2.00
2022-10-04T22:25:41.987Z,1.95
2022-10-04T22:28:20.404Z,1.95
2022-10-04T22:30:49.570Z,2.03
2022-10-04T22:33:25.893Z,2.03
2022-10-04T22:35:54.321Z,1.85
2022-10-04T22:38:22.737Z,2.08
2022-10-04T22:40:51.184Z,1.75
2022-10-04T22:43:20.952Z,2.30
2022-10-04T22:45:49.459Z,1.80
2022-10-04T22:48:18.101Z,1.90
2022-10-04T22:50:46.503Z,2.28
2022-10-04T22:53:16.052Z,1.95
2022-10-04T22:55:44.646Z,1.80
2022-10-04T22:58:15.160Z,1.95
2022-10-04T23:00:45.666Z,1.90
2022-10-04T23:03:19.989Z,2.22
2022-10-04T23:05:48.465Z,2.22
2022-10-04T23:08:17.883Z,2.00
2022-10-04T23:10:46.376Z,2.33
2022-10-04T23:13:14.830Z,2.00
2022-10-04T23:15:43.231Z,1.95
2022-10-04T23:18:16.327Z,1.73
2022-10-04T23:20:44.920Z,2.03
2022-10-04T23:23:17.242Z,1.90
2022-10-04T23:25:47.147Z,1.85
2022-10-04T23:28:16.485Z,2.20
2022-10-04T23:30:45.598Z,2.10
2022-10-04T23:33:18.004Z,2.08
2022-10-04T23:35:46.412Z,2.70
2022-10-04T23:38:16.261Z,1.90
2022-10-04T23:40:45.416Z,1.70
2022-10-04T23:43:17.070Z,2.00
2022-10-04T23:45:45.778Z,2.38
2022-10-04T23:48:18.807Z,1.85
2022-10-04T23:50:48.865Z,2.28
2022-10-04T23:53:20.323Z,2.10
2022-10-04T23:55:48.724Z,1.80
2022-10-04T23:58:18.609Z,1.73
